aviador You're here:

KARB Decoded Metar

ANN ARBOR in MI, USA
Report Time2018-04-21 08:53:00
UTC Time2018-04-21 09:18:09
Flight Rules vfr VFR
WindCalm
Visibility9999 m
Phenomena:N/A
Clouds:N/A
Expected CloudBase > 400 ft AGL from Temp-Dew spread
CeilingNone
Temp-2°C (ISA -15)
Dew Point-3°C (93% RH)
AAT-4.4°C
QNH1031 hPa
Density Alt-1,601 ft
Elevation823 ft
Report Wrong Elevation
Raw Report
KARB 210853Z AUTO 00000KT 10SM CLR M02/M03 A3046 RMK AO2 SLP319
T10221033 55000=

Extra information for KARB:More info

Metar Taf Metar & Taf Last 4 Metars F.Rules Stats Wind Profile Meteogram Temp Stats Airport Information Weather charts Add Link Nearby VenuesMetar ALERT Operation Metar Decoded Social comments

AIRNAV info for KARB